Time;durP1;ratioP1;P1;durP2;ratioP2;P2;SDS_P1;SDS_P2;PMS_P1;PMS_P2;Temp;Humidity;BMP_temperature;BMP_pressure;BME280_temperature;BME280_humidity;BME280_pressure;Samples;Min_cycle;Max_cycle;Signal;HPM_P1;HPM_P2
2024/04/13 00:02:34;;;;;;;14.60;9.07;;;;;;;11.93;100.00;102435.50;6348383;27;20265;-72
2024/04/13 00:05:54;;;;;;;15.17;9.87;;;;;;;12.00;100.00;102428.72;6354866;27;20281;-72
2024/04/13 00:09:16;;;;;;;11.67;8.43;;;;;;;12.07;100.00;102431.84;6377719;27;20278;-72
2024/04/13 00:12:41;;;;;;;18.17;9.60;;;;;;;12.07;100.00;102430.97;6355722;27;20279;-71
2024/04/13 00:16:04;;;;;;;11.40;6.57;;;;;;;12.08;100.00;102420.03;6373143;27;20808;-71
2024/04/13 00:19:26;;;;;;;17.90;7.20;;;;;;;12.18;100.00;102410.34;6373543;27;20347;-72
2024/04/13 00:22:47;;;;;;;14.20;7.27;;;;;;;12.46;100.00;102401.09;6358530;27;20661;-73
2024/04/13 00:26:09;;;;;;;13.43;6.57;;;;;;;12.69;100.00;102395.75;6366023;27;20306;-72
2024/04/13 00:29:35;;;;;;;9.00;6.07;;;;;;;12.75;100.00;102392.59;6372526;27;20277;-72
2024/04/13 00:32:57;;;;;;;6.57;5.50;;;;;;;12.78;100.00;102392.38;6362324;27;20529;-72
2024/04/13 00:36:18;;;;;;;9.57;6.03;;;;;;;12.77;100.00;102393.34;6369413;27;20269;-71
2024/04/13 00:39:40;;;;;;;7.13;4.87;;;;;;;12.82;100.00;102388.47;6375395;27;20317;-72
2024/04/13 00:43:09;;;;;;;11.63;5.33;;;;;;;12.84;100.00;102388.34;6372387;27;20276;-72
2024/04/13 00:46:32;;;;;;;6.63;5.83;;;;;;;12.91;100.00;102362.56;6358272;27;20493;-72
2024/04/13 00:49:55;;;;;;;7.47;5.23;;;;;;;12.91;100.00;102381.50;6373220;27;20299;-72
2024/04/13 00:53:20;;;;;;;8.20;6.20;;;;;;;12.91;100.00;102375.22;6363629;27;20921;-72
2024/04/13 00:56:41;;;;;;;12.53;5.77;;;;;;;12.95;100.00;102360.47;6361433;27;20256;-72
2024/04/13 01:00:05;;;;;;;9.27;5.90;;;;;;;12.99;100.00;102359.25;6364530;27;20276;-72
2024/04/13 01:03:27;;;;;;;7.00;5.23;;;;;;;12.97;100.00;102366.63;6368733;27;20536;-71
2024/04/13 01:06:51;;;;;;;7.17;4.67;;;;;;;12.98;100.00;102357.50;6361855;27;20320;-72
2024/04/13 01:10:16;;;;;;;7.90;4.40;;;;;;;12.96;100.00;102354.94;6366946;27;20472;-71
2024/04/13 01:13:40;;;;;;;7.87;4.93;;;;;;;13.05;100.00;102353.41;6361904;27;20273;-71
2024/04/13 01:17:02;;;;;;;6.33;4.60;;;;;;;13.07;100.00;102355.03;6370575;27;20272;-71
2024/04/13 01:20:27;;;;;;;6.20;4.90;;;;;;;13.07;100.00;102349.63;6353992;27;20396;-71
2024/04/13 01:23:58;;;;;;;7.63;4.93;;;;;;;13.09;100.00;102349.50;6368058;27;20331;-72
2024/04/13 01:27:18;;;;;;;16.90;5.73;;;;;;;13.11;100.00;102347.53;6345578;27;20273;-72
2024/04/13 01:30:42;;;;;;;9.20;4.43;;;;;;;13.08;100.00;102340.50;6353728;27;20332;-72
2024/04/13 01:34:03;;;;;;;6.67;4.97;;;;;;;13.10;100.00;102340.41;6371722;27;20297;-72
2024/04/13 01:37:25;;;;;;;8.73;4.87;;;;;;;13.14;100.00;102339.19;6357068;27;20285;-71
2024/04/13 01:40:50;;;;;;;6.40;4.97;;;;;;;13.12;100.00;102336.56;6350327;27;20268;-72
2024/04/13 01:44:10;;;;;;;8.93;5.43;;;;;;;13.10;100.00;102343.94;6377117;27;20269;-72
2024/04/13 01:47:32;;;;;;;6.87;4.37;;;;;;;13.10;100.00;102332.28;6341642;27;20473;-73
2024/04/13 01:50:52;;;;;;;7.13;5.57;;;;;;;13.09;100.00;102333.25;6354519;27;20273;-72
2024/04/13 01:54:14;;;;;;;7.43;5.47;;;;;;;13.07;100.00;102333.38;6326937;27;20286;-72
2024/04/13 01:57:39;;;;;;;6.77;5.27;;;;;;;13.09;100.00;102335.97;6329103;27;20271;-72
2024/04/13 02:01:06;;;;;;;5.63;4.90;;;;;;;13.18;100.00;102322.59;6373237;27;20277;-72
2024/04/13 02:04:26;;;;;;;5.30;4.37;;;;;;;13.20;100.00;102333.31;6372333;27;20328;-72
2024/04/13 02:07:48;;;;;;;6.73;4.40;;;;;;;13.20;100.00;102323.34;6351294;27;20807;-72
2024/04/13 02:11:08;;;;;;;6.97;3.97;;;;;;;13.17;100.00;102310.03;6356085;27;20269;-72
2024/04/13 02:14:33;;;;;;;8.47;4.33;;;;;;;13.26;100.00;102308.44;6366494;27;20274;-73
2024/04/13 02:17:56;;;;;;;5.47;3.97;;;;;;;13.19;100.00;102307.19;6372875;27;20289;-72
2024/04/13 02:21:16;;;;;;;5.80;4.47;;;;;;;13.14;100.00;102320.22;6360569;27;20266;-73
2024/04/13 02:24:39;;;;;;;8.37;5.33;;;;;;;13.11;100.00;102317.75;6368950;27;20285;-72
2024/04/13 02:28:02;;;;;;;4.80;3.53;;;;;;;13.13;100.00;102308.53;6363958;27;20277;-72
2024/04/13 02:31:24;;;;;;;7.30;4.70;;;;;;;13.18;100.00;102311.75;6365957;27;20295;-73
2024/04/13 02:34:47;;;;;;;6.73;4.10;;;;;;;13.23;100.00;102306.84;6368146;27;20659;-73
2024/04/13 02:38:08;;;;;;;4.60;4.10;;;;;;;13.27;100.00;102311.03;6364201;27;20389;-73
2024/04/13 02:41:31;;;;;;;5.03;4.53;;;;;;;13.27;100.00;102302.91;6366080;27;20269;-73
2024/04/13 02:44:51;;;;;;;8.40;4.00;;;;;;;13.22;100.00;102294.28;6364709;27;20280;-73
2024/04/13 02:48:17;;;;;;;5.27;4.13;;;;;;;13.23;100.00;102298.72;6358899;27;20268;-73
2024/04/13 02:51:36;;;;;;;6.40;4.53;;;;;;;13.17;100.00;102292.91;6367798;27;20272;-73
2024/04/13 02:54:59;;;;;;;6.87;4.57;;;;;;;13.22;100.00;102301.56;6389813;27;20285;-73
2024/04/13 02:58:18;;;;;;;5.10;4.70;;;;;;;13.21;100.00;102295.25;6370148;27;20269;-72
2024/04/13 03:01:41;;;;;;;7.10;3.73;;;;;;;13.26;100.00;102303.03;6356247;27;20312;-72
2024/04/13 03:05:07;;;;;;;4.80;4.30;;;;;;;13.24;100.00;102297.75;6370974;27;20288;-73
2024/04/13 03:08:27;;;;;;;6.00;4.40;;;;;;;13.23;100.00;102296.00;6366038;27;20277;-73
2024/04/13 03:11:49;;;;;;;4.70;3.07;;;;;;;13.20;100.00;102281.84;6357486;27;20253;-73
2024/04/13 03:15:10;;;;;;;7.07;2.97;;;;;;;13.17;100.00;102280.22;6360323;27;20278;-73
2024/04/13 03:18:32;;;;;;;4.27;3.87;;;;;;;13.17;100.00;102291.06;6359572;27;20272;-73
2024/04/13 03:21:58;;;;;;;3.57;3.23;;;;;;;13.13;100.00;102291.41;6377405;27;20324;-71
2024/04/13 03:25:18;;;;;;;4.77;3.30;;;;;;;13.12;100.00;102282.41;6380791;27;20631;-71
2024/04/13 03:28:42;;;;;;;6.07;3.60;;;;;;;13.11;100.00;102291.53;6365967;27;20282;-71
2024/04/13 03:32:02;;;;;;;5.27;3.90;;;;;;;13.15;100.00;102292.16;6356167;27;20281;-72
2024/04/13 03:35:25;;;;;;;6.47;3.40;;;;;;;13.18;100.00;102305.47;6355838;27;20490;-72
2024/04/13 03:38:50;;;;;;;4.53;4.03;;;;;;;13.17;100.00;102307.31;6336545;27;20270;-72
2024/04/13 03:42:13;;;;;;;4.33;3.30;;;;;;;13.12;100.00;102300.53;6313903;27;20274;-72
2024/04/13 03:45:33;;;;;;;3.90;3.60;;;;;;;13.08;100.00;102290.94;6348983;27;20612;-71
2024/04/13 03:48:56;;;;;;;6.63;3.93;;;;;;;13.10;100.00;102286.25;6370512;27;20759;-73
2024/04/13 03:52:16;;;;;;;7.27;3.63;;;;;;;13.11;100.00;102299.66;6375256;27;20624;-72
2024/04/13 03:55:40;;;;;;;3.67;3.20;;;;;;;13.03;100.00;102290.38;6359044;27;20474;-73
2024/04/13 03:59:00;;;;;;;5.83;4.17;;;;;;;12.98;100.00;102285.28;6368528;27;20289;-73
2024/04/13 04:02:22;;;;;;;4.97;3.13;;;;;;;13.01;100.00;102287.78;6351417;27;20499;-72
2024/04/13 04:05:45;;;;;;;5.13;3.33;;;;;;;12.98;100.00;102273.59;6369326;27;20329;-72
2024/04/13 04:09:10;;;;;;;4.03;3.63;;;;;;;12.99;100.00;102270.78;6370146;27;20274;-72
2024/04/13 04:12:33;;;;;;;6.27;3.63;;;;;;;13.01;100.00;102281.50;6358822;27;20744;-72
2024/04/13 04:15:55;;;;;;;3.97;3.40;;;;;;;12.94;100.00;102278.38;6364454;27;20277;-73
2024/04/13 04:19:15;;;;;;;5.60;3.97;;;;;;;12.97;100.00;102280.00;6389907;27;20616;-72
2024/04/13 04:22:39;;;;;;;7.60;4.33;;;;;;;12.95;100.00;102281.97;6377797;27;20285;-71
2024/04/13 04:25:59;;;;;;;4.63;3.77;;;;;;;12.89;100.00;102279.72;6368854;27;20281;-73
2024/04/13 04:29:24;;;;;;;4.40;3.90;;;;;;;12.82;100.00;102285.63;6375997;27;20277;-73
2024/04/13 04:32:44;;;;;;;3.70;3.40;;;;;;;12.97;100.00;102288.13;6372246;27;20265;-73
2024/04/13 04:36:07;;;;;;;7.47;3.90;;;;;;;12.93;100.00;102281.22;6389390;27;20591;-72
2024/04/13 04:39:28;;;;;;;3.70;3.40;;;;;;;12.96;100.00;102283.69;6372341;27;20273;-73
2024/04/13 04:42:51;;;;;;;5.37;3.63;;;;;;;12.98;100.00;102288.00;6354580;27;20258;-73
2024/04/13 04:46:16;;;;;;;4.27;3.87;;;;;;;12.93;100.00;102283.94;6363084;27;20276;-72
2024/04/13 04:49:38;;;;;;;4.13;3.07;;;;;;;13.01;100.00;102284.19;6374472;27;20471;-72
2024/04/13 04:53:00;;;;;;;4.63;4.23;;;;;;;13.02;100.00;102278.66;6372658;27;20284;-72
2024/04/13 04:56:23;;;;;;;10.17;4.20;;;;;;;13.03;100.00;102283.13;6364400;27;20269;-72
2024/04/13 04:59:45;;;;;;;6.43;3.60;;;;;;;13.12;100.00;102273.47;6369612;27;20334;-72
2024/04/13 05:03:08;;;;;;;6.27;4.17;;;;;;;13.08;100.00;102274.69;6379484;27;20301;-72
2024/04/13 05:06:31;;;;;;;7.07;4.00;;;;;;;13.09;100.00;102260.16;6368109;27;20542;-73
2024/04/13 05:09:53;;;;;;;4.07;3.67;;;;;;;13.14;100.00;102266.91;6366975;27;20277;-72
2024/04/13 05:13:16;;;;;;;5.83;4.50;;;;;;;13.13;100.00;102273.34;6386865;27;20966;-72
2024/04/13 05:16:36;;;;;;;4.37;3.97;;;;;;;13.26;100.00;102279.53;6362241;27;20273;-73
2024/04/13 05:20:00;;;;;;;4.13;3.67;;;;;;;13.27;100.00;102288.50;6371076;27;20288;-73
2024/04/13 05:23:23;;;;;;;4.27;3.43;;;;;;;13.31;100.00;102273.72;6369994;27;20277;-73
2024/04/13 05:26:45;;;;;;;3.53;3.23;;;;;;;13.40;100.00;102283.88;6338895;27;20277;-73
2024/04/13 05:30:10;;;;;;;4.20;3.37;;;;;;;13.43;100.00;102305.31;6324996;27;20267;-72
2024/04/13 05:33:32;;;;;;;4.50;3.90;;;;;;;13.47;100.00;102295.97;6335535;27;20661;-72
2024/04/13 05:36:57;;;;;;;3.90;3.30;;;;;;;13.48;100.00;102301.25;6328108;27;20338;-72
2024/04/13 05:40:20;;;;;;;3.53;3.00;;;;;;;13.49;100.00;102307.53;6324157;27;20319;-72
2024/04/13 05:43:40;;;;;;;7.10;3.97;;;;;;;13.54;100.00;102302.59;6364609;27;20296;-71
2024/04/13 05:47:03;;;;;;;4.90;4.40;;;;;;;13.62;100.00;102289.34;6351608;27;20342;-72
2024/04/13 05:50:25;;;;;;;4.53;4.13;;;;;;;13.63;100.00;102293.75;6360746;27;20261;-71
2024/04/13 05:53:47;;;;;;;8.27;4.10;;;;;;;13.64;100.00;102309.06;6373099;27;20273;-71
2024/04/13 05:57:11;;;;;;;3.60;3.30;;;;;;;13.58;100.00;102307.66;6363735;27;20261;-72
2024/04/13 06:00:31;;;;;;;6.30;4.17;;;;;;;13.59;100.00;102284.16;6355097;27;20289;-72
2024/04/13 06:03:54;;;;;;;4.10;3.50;;;;;;;13.63;100.00;102289.22;6367840;27;20280;-71
2024/04/13 06:07:13;;;;;;;5.83;3.70;;;;;;;13.60;100.00;102302.16;6371881;27;20266;-71
2024/04/13 06:10:38;;;;;;;3.60;3.30;;;;;;;13.61;100.00;102299.31;6378127;27;20907;-72
2024/04/13 06:13:58;;;;;;;3.83;3.33;;;;;;;13.66;100.00;102288.09;6366324;27;20606;-73
2024/04/13 06:17:20;;;;;;;4.47;3.37;;;;;;;13.64;100.00;102285.50;6358892;27;20262;-73
2024/04/13 06:20:43;;;;;;;4.27;3.77;;;;;;;13.66;100.00;102277.28;6323476;27;20274;-74
2024/04/13 06:24:05;;;;;;;4.33;3.03;;;;;;;13.76;100.00;102293.66;6355002;27;20268;-72
2024/04/13 06:27:27;;;;;;;3.73;3.37;;;;;;;13.72;100.00;102292.16;6354530;27;20284;-70
2024/04/13 06:30:50;;;;;;;6.23;3.83;;;;;;;13.87;100.00;102299.09;6357912;27;20273;-69
2024/04/13 06:34:12;;;;;;;4.33;3.23;;;;;;;13.91;100.00;102293.31;6371210;27;20889;-69
2024/04/13 06:37:35;;;;;;;4.80;4.10;;;;;;;13.95;100.00;102289.34;6364681;27;20272;-68
2024/04/13 06:40:57;;;;;;;5.30;3.57;;;;;;;13.86;100.00;102297.34;6364418;27;20284;-70
2024/04/13 06:44:19;;;;;;;4.53;4.13;;;;;;;14.01;100.00;102293.41;6370553;27;20273;-70
2024/04/13 06:47:41;;;;;;;4.30;3.50;;;;;;;14.08;100.00;102281.09;6363988;27;20396;-69
2024/04/13 06:51:03;;;;;;;5.27;3.40;;;;;;;14.21;100.00;102276.38;6353355;27;20281;-74
2024/04/13 06:54:26;;;;;;;4.00;3.57;;;;;;;14.25;100.00;102289.56;6363916;27;20445;-73
2024/04/13 06:57:48;;;;;;;4.33;3.73;;;;;;;14.30;100.00;102281.09;6355662;27;20276;-72
2024/04/13 07:01:11;;;;;;;5.17;3.57;;;;;;;14.37;100.00;102283.16;6355173;27;20482;-72
2024/04/13 07:04:34;;;;;;;5.53;3.47;;;;;;;14.44;100.00;102283.53;6362200;27;20280;-72
2024/04/13 07:07:53;;;;;;;4.87;3.10;;;;;;;14.25;100.00;102280.56;6352910;27;20288;-72
2024/04/13 07:11:16;;;;;;;5.07;3.23;;;;;;;14.40;100.00;102284.78;6359198;27;20265;-73
2024/04/13 07:14:36;;;;;;;4.00;3.40;;;;;;;14.27;100.00;102284.00;6367036;27;20266;-72
2024/04/13 07:18:02;;;;;;;3.87;3.00;;;;;;;14.45;100.00;102273.53;6346601;27;20341;-73
2024/04/13 07:21:21;;;;;;;3.53;3.23;;;;;;;14.45;100.00;102287.97;6312733;27;20285;-73
2024/04/13 07:24:44;;;;;;;6.00;3.73;;;;;;;14.74;100.00;102286.41;6357724;27;20268;-72
2024/04/13 07:28:07;;;;;;;6.27;4.10;;;;;;;14.68;100.00;102286.06;6363097;27;20262;-72
2024/04/13 07:31:26;;;;;;;4.23;3.70;;;;;;;14.69;100.00;102277.78;6360208;27;20497;-72
2024/04/13 07:34:51;;;;;;;4.73;4.10;;;;;;;14.61;100.00;102285.72;6324485;27;20275;-72
2024/04/13 07:38:11;;;;;;;5.13;3.63;;;;;;;14.49;100.00;102291.28;6327727;27;20266;-73
2024/04/13 07:41:34;;;;;;;16.63;5.00;;;;;;;14.69;100.00;102283.22;6324649;27;20620;-72
2024/04/13 07:44:56;;;;;;;4.17;3.03;;;;;;;14.64;100.00;102292.75;6359178;27;20587;-72
2024/04/13 07:48:17;;;;;;;4.67;4.10;;;;;;;14.66;100.00;102283.50;6355380;27;20280;-73
2024/04/13 07:51:42;;;;;;;4.93;3.73;;;;;;;14.98;100.00;102299.75;6362577;27;20401;-72
2024/04/13 07:55:04;;;;;;;3.93;3.53;;;;;;;14.96;100.00;102283.59;6372079;27;20277;-73
2024/04/13 07:58:24;;;;;;;5.50;4.40;;;;;;;15.42;100.00;102277.81;6369083;27;20280;-73
2024/04/13 08:01:46;;;;;;;5.93;4.13;;;;;;;15.45;100.00;102284.88;6352976;27;20288;-72
2024/04/13 08:05:09;;;;;;;5.50;3.50;;;;;;;15.80;100.00;102285.38;6357161;27;20280;-71
2024/04/13 08:08:34;;;;;;;11.57;4.03;;;;;;;15.90;100.00;102287.13;6372661;27;20280;-72
2024/04/13 08:11:57;;;;;;;4.33;3.20;;;;;;;15.63;100.00;102278.69;6365139;27;20281;-72
2024/04/13 08:15:19;;;;;;;4.43;3.80;;;;;;;15.75;100.00;102271.31;6376998;27;20272;-72
2024/04/13 08:18:39;;;;;;;3.13;2.90;;;;;;;16.06;100.00;102285.78;6368708;27;20600;-72
2024/04/13 08:22:02;;;;;;;5.67;3.60;;;;;;;15.84;100.00;102287.69;6372925;27;20273;-72
2024/04/13 08:25:24;;;;;;;5.50;3.43;;;;;;;16.09;100.00;102274.59;6305177;27;20270;-71
2024/04/13 08:28:47;;;;;;;3.30;2.63;;;;;;;16.27;100.00;102279.25;6332248;27;20268;-71
2024/04/13 08:32:07;;;;;;;4.03;3.27;;;;;;;16.36;100.00;102266.66;6360693;27;20377;-72
2024/04/13 08:35:29;;;;;;;3.50;3.20;;;;;;;16.16;100.00;102273.94;6357401;27;20281;-72
2024/04/13 08:38:51;;;;;;;5.87;3.50;;;;;;;16.16;100.00;102286.66;6371388;27;20265;-71
2024/04/13 08:42:20;;;;;;;6.87;3.17;;;;;;;16.23;100.00;102263.38;6355593;27;20737;-72
2024/04/13 08:45:43;;;;;;;4.23;3.83;;;;;;;16.55;100.00;102262.16;6365296;27;20280;-72
2024/04/13 08:49:03;;;;;;;4.67;3.67;;;;;;;16.68;100.00;102267.34;6364430;27;20288;-72
2024/04/13 08:52:25;;;;;;;7.37;4.20;;;;;;;16.86;100.00;102265.63;6355923;27;20372;-73
2024/04/13 08:55:49;;;;;;;5.23;3.37;;;;;;;17.22;100.00;102275.81;6361127;27;20265;-72
2024/04/13 08:59:12;;;;;;;5.20;4.23;;;;;;;17.21;100.00;102271.34;6375629;27;20277;-73
2024/04/13 09:02:36;;;;;;;4.00;3.57;;;;;;;17.02;100.00;102268.63;6369550;27;20781;-72
2024/04/13 09:05:56;;;;;;;5.73;4.07;;;;;;;16.82;100.00;102268.78;6364785;27;20285;-72
2024/04/13 09:09:19;;;;;;;3.73;2.97;;;;;;;16.96;100.00;102266.50;6370309;27;20273;-71
2024/04/13 09:12:41;;;;;;;6.57;3.87;;;;;;;17.39;100.00;102253.28;6354560;27;20270;-72
2024/04/13 09:16:06;;;;;;;3.30;3.00;;;;;;;17.20;100.00;102257.88;6363227;27;20412;-72
2024/04/13 09:19:28;;;;;;;4.22;3.25;;;;;;;17.24;100.00;102265.63;6361921;27;20714;-72
2024/04/13 09:22:49;;;;;;;5.13;3.10;;;;;;;17.27;100.00;102245.41;6350716;27;20269;-72
2024/04/13 09:26:11;;;;;;;4.20;3.17;;;;;;;17.03;100.00;102250.44;6353698;27;20540;-72
2024/04/13 09:29:31;;;;;;;9.87;3.83;;;;;;;17.22;100.00;102253.16;6353827;27;20724;-73
2024/04/13 09:33:06;;;;;;;3.57;2.70;;;;;;;17.34;100.00;102249.25;6373585;27;20290;-71
2024/04/13 09:36:29;;;;;;;3.17;2.93;;;;;;;17.81;100.00;102234.66;6350185;27;20273;-73
2024/04/13 09:39:59;;;;;;;4.57;3.00;;;;;;;17.56;100.00;102230.69;6336360;27;20261;-73
2024/04/13 09:43:23;;;;;;;5.73;4.13;;;;;;;17.66;100.00;102232.56;6351641;27;20338;-73
2024/04/13 09:46:43;;;;;;;5.50;3.45;;;;;;;17.90;100.00;102222.81;6326147;27;20274;-72
2024/04/13 09:50:09;;;;;;;5.38;3.85;;;;;;;18.67;100.00;102233.34;6346488;27;20293;-73
2024/04/13 09:53:30;;;;;;;3.05;2.75;;;;;;;18.49;100.00;102238.75;6391253;27;20652;-71
2024/04/13 09:56:54;;;;;;;3.67;2.80;;;;;;;18.92;100.00;102227.91;6366738;27;20477;-71
2024/04/13 10:00:19;;;;;;;6.32;4.25;;;;;;;19.21;100.00;102230.41;6355483;27;20270;-69
2024/04/13 10:03:42;;;;;;;6.80;3.40;;;;;;;18.80;100.00;102223.72;6365910;27;20281;-70
2024/04/13 10:07:08;;;;;;;6.57;4.38;;;;;;;18.20;100.00;102221.66;6366663;27;20276;-70
2024/04/13 10:10:29;;;;;;;4.85;3.42;;;;;;;18.76;100.00;102229.63;6354467;27;20602;-71
2024/04/13 10:13:54;;;;;;;6.50;4.18;;;;;;;18.81;100.00;102208.19;6368443;27;20276;-71
2024/04/13 10:17:15;;;;;;;5.25;2.70;;;;;;;19.24;100.00;102199.13;6322625;27;20297;-71
2024/04/13 10:20:38;;;;;;;3.25;2.70;;;;;;;19.36;100.00;102197.91;6364521;27;20680;-69
2024/04/13 10:24:03;;;;;;;4.50;3.65;;;;;;;18.68;100.00;102197.66;6364172;27;20262;-70
2024/04/13 10:27:24;;;;;;;4.28;2.95;;;;;;;18.52;100.00;102194.75;6355213;27;20274;-71
2024/04/13 10:30:48;;;;;;;3.42;2.58;;;;;;;18.84;100.00;102191.47;6360012;27;20317;-71
2024/04/13 10:34:14;;;;;;;2.47;2.08;;;;;;;18.37;100.00;102204.47;6368796;27;20268;-72
2024/04/13 10:37:35;;;;;;;3.45;2.28;;;;;;;19.08;100.00;102187.06;6367413;27;20282;-71
2024/04/13 10:41:01;;;;;;;3.13;2.15;;;;;;;18.96;100.00;102188.31;6357401;27;20344;-71
2024/04/13 10:44:25;;;;;;;3.38;2.08;;;;;;;19.26;100.00;102189.75;6370936;27;20276;-71
2024/04/13 10:47:49;;;;;;;2.88;2.60;;;;;;;19.14;100.00;102194.63;6361508;27;20269;-69
2024/04/13 10:51:12;;;;;;;5.85;3.10;;;;;;;19.23;100.00;102173.69;6372334;27;20855;-70
2024/04/13 10:54:32;;;;;;;2.88;2.08;;;;;;;19.17;100.00;102185.22;6380129;27;20264;-69
2024/04/13 10:57:58;;;;;;;2.95;2.28;;;;;;;18.96;100.00;102179.28;6365788;27;20277;-67
2024/04/13 11:01:22;;;;;;;2.40;2.20;;;;;;;19.45;100.00;102178.63;6362221;27;20832;-67
2024/04/13 11:04:42;;;;;;;3.28;2.10;;;;;;;19.32;100.00;102175.44;6368356;27;20269;-68
2024/04/13 11:08:05;;;;;;;4.63;2.17;;;;;;;19.23;100.00;102183.75;6360495;27;20288;-66
2024/04/13 11:11:28;;;;;;;6.85;3.42;;;;;;;19.92;100.00;102179.06;6357843;27;20623;-70
2024/04/13 11:14:54;;;;;;;2.22;2.03;;;;;;;19.63;100.00;102167.63;6362377;27;20269;-71
2024/04/13 11:18:17;;;;;;;4.43;1.80;;;;;;;19.59;100.00;102172.53;6362562;27;20316;-70
2024/04/13 11:21:40;;;;;;;4.10;2.67;;;;;;;20.06;100.00;102166.59;6360898;27;20276;-70
2024/04/13 11:25:04;;;;;;;5.07;2.95;;;;;;;20.33;100.00;102169.97;6370136;27;20281;-70
2024/04/13 11:28:24;;;;;;;4.82;2.53;;;;;;;20.23;100.00;102158.31;6376643;27;20269;-70
2024/04/13 11:31:49;;;;;;;2.80;2.03;;;;;;;20.26;100.00;102146.13;6379171;27;20287;-70
2024/04/13 11:35:12;;;;;;;3.88;2.92;;;;;;;21.19;100.00;102145.69;6370392;27;20271;-70
2024/04/13 11:38:37;;;;;;;7.38;3.00;;;;;;;21.21;100.00;102133.50;6366691;27;20344;-70
2024/04/13 11:42:04;;;;;;;2.58;2.38;;;;;;;22.30;100.00;102145.41;6361506;27;20293;-67
2024/04/13 11:45:28;;;;;;;9.48;3.20;;;;;;;21.49;100.00;102136.66;6344717;27;20264;-71
2024/04/13 11:48:53;;;;;;;3.08;2.08;;;;;;;22.10;100.00;102124.94;6364773;27;20273;-72
2024/04/13 11:52:17;;;;;;;4.88;2.85;;;;;;;22.64;100.00;102123.91;6383058;27;20517;-71
2024/04/13 11:55:37;;;;;;;2.70;2.25;;;;;;;20.99;100.00;102127.84;6356262;27;20281;-71
2024/04/13 11:59:02;;;;;;;3.20;2.40;;;;;;;21.69;100.00;102128.91;6364477;27;20681;-71
2024/04/13 12:02:22;;;;;;;3.85;2.80;;;;;;;21.70;100.00;102123.22;6364676;27;20277;-72
2024/04/13 12:05:47;;;;;;;3.70;3.05;;;;;;;21.62;100.00;102109.53;6359960;27;20261;-71
2024/04/13 12:09:08;;;;;;;4.00;2.78;;;;;;;21.80;100.00;102101.88;6368683;27;20269;-72
2024/04/13 12:12:31;;;;;;;2.65;2.10;;;;;;;21.23;100.00;102094.91;6364367;27;20631;-72
2024/04/13 12:15:50;;;;;;;4.22;3.38;;;;;;;21.46;100.00;102084.91;6357475;27;20262;-72
2024/04/13 12:19:13;;;;;;;3.05;1.98;;;;;;;21.98;100.00;102099.78;6368484;27;20726;-71
2024/04/13 12:22:35;;;;;;;5.70;2.75;;;;;;;22.90;100.00;102093.25;6359603;27;20656;-71
2024/04/13 12:25:57;;;;;;;3.03;2.83;;;;;;;22.94;100.00;102098.19;6364512;27;20269;-72
2024/04/13 12:29:17;;;;;;;2.50;2.00;;;;;;;22.47;100.00;102072.78;6356989;27;20288;-70
2024/04/13 12:32:40;;;;;;;2.88;2.17;;;;;;;22.48;100.00;102080.03;6338721;27;20331;-69
2024/04/13 12:36:00;;;;;;;5.95;2.80;;;;;;;22.08;100.00;102081.16;6359609;27;20281;-69
2024/04/13 12:39:25;;;;;;;2.63;2.42;;;;;;;22.25;100.00;102081.91;6378560;27;20266;-68
2024/04/13 12:42:45;;;;;;;2.13;1.77;;;;;;;22.94;100.00;102078.94;6358395;27;20278;-68
2024/04/13 12:46:07;;;;;;;2.88;2.60;;;;;;;23.95;97.11;102070.81;6367247;27;20285;-68
2024/04/13 12:49:30;;;;;;;3.75;1.90;;;;;;;22.49;99.09;102081.72;6372313;27;20298;-69
2024/04/13 12:52:52;;;;;;;1.85;1.75;;;;;;;22.62;100.00;102086.63;6327070;27;20257;-69
2024/04/13 12:56:17;;;;;;;2.22;1.70;;;;;;;23.21;100.00;102060.06;6331851;27;20831;-68
2024/04/13 12:59:39;;;;;;;4.40;1.90;;;;;;;22.92;100.00;102069.16;6333985;27;20420;-69
2024/04/13 13:03:01;;;;;;;4.10;3.13;;;;;;;23.44;99.45;102060.84;6368464;27;20277;-68
2024/04/13 13:06:21;;;;;;;7.10;3.70;;;;;;;23.71;100.00;102027.97;6366911;27;20542;-68
2024/04/13 13:09:44;;;;;;;2.67;2.33;;;;;;;21.87;100.00;102047.13;6333173;27;20469;-68
2024/04/13 13:13:09;;;;;;;3.72;2.35;;;;;;;22.11;100.00;102036.00;6369509;27;20323;-68
2024/04/13 13:16:28;;;;;;;2.30;1.73;;;;;;;23.40;100.00;102030.09;6381355;27;20274;-69
2024/04/13 13:19:51;;;;;;;3.35;1.98;;;;;;;23.82;99.21;102013.66;6369686;27;20269;-69
2024/04/13 13:23:14;;;;;;;1.67;1.58;;;;;;;24.20;94.49;102005.22;6363000;27;20269;-68
2024/04/13 13:26:36;;;;;;;6.53;1.80;;;;;;;24.33;90.49;101997.88;6366948;27;20277;-69
2024/04/13 13:30:01;;;;;;;2.25;1.70;;;;;;;23.04;100.00;101996.97;6358863;27;20288;-69
2024/04/13 13:33:21;;;;;;;1.85;1.70;;;;;;;23.78;96.47;101983.97;6348243;27;20270;-70
2024/04/13 13:36:44;;;;;;;2.65;1.35;;;;;;;23.29;100.00;101985.66;6359072;27;20505;-69
2024/04/13 13:40:05;;;;;;;2.25;2.05;;;;;;;22.24;100.00;101973.88;6376042;27;20501;-68
2024/04/13 13:43:27;;;;;;;2.85;1.33;;;;;;;21.71;100.00;101971.19;6369040;27;20269;-69
2024/04/13 13:46:52;;;;;;;1.77;1.50;;;;;;;22.78;100.00;101954.50;6367563;27;20253;-69
2024/04/13 13:50:13;;;;;;;9.50;2.30;;;;;;;21.96;100.00;101941.69;6360328;27;20996;-70
2024/04/13 13:53:35;;;;;;;2.15;1.42;;;;;;;22.62;100.00;101935.41;6376263;27;20276;-69
2024/04/13 13:56:55;;;;;;;3.25;2.03;;;;;;;21.97;100.00;101927.78;6366475;27;20269;-68
2024/04/13 14:00:18;;;;;;;2.67;1.88;;;;;;;21.95;100.00;101923.50;6370032;27;20454;-67
2024/04/13 14:03:43;;;;;;;3.97;3.35;;;;;;;22.31;100.00;101918.19;6372059;27;20268;-69
2024/04/13 14:07:05;;;;;;;1.85;1.60;;;;;;;22.67;100.00;101898.06;6365930;27;20273;-69
2024/04/13 14:10:26;;;;;;;4.30;2.13;;;;;;;23.05;100.00;101899.63;6336377;27;20262;-68
2024/04/13 14:13:49;;;;;;;3.40;2.20;;;;;;;23.41;100.00;101888.66;6361133;27;20274;-68
2024/04/13 14:17:11;;;;;;;2.95;2.22;;;;;;;22.78;100.00;101888.50;6353885;27;20337;-69
2024/04/13 14:20:36;;;;;;;1.90;1.67;;;;;;;22.49;100.00;101889.28;6365003;27;20286;-69
2024/04/13 14:23:56;;;;;;;2.88;1.83;;;;;;;22.05;100.00;101894.72;6378899;27;20600;-69
2024/04/13 14:27:18;;;;;;;1.58;1.48;;;;;;;21.67;100.00;101889.38;6373899;27;20268;-69
2024/04/13 14:30:40;;;;;;;1.98;1.73;;;;;;;22.56;100.00;101873.75;6365648;27;20269;-69
2024/04/13 14:34:00;;;;;;;2.47;2.28;;;;;;;22.69;100.00;101875.88;6373831;27;20337;-69
2024/04/13 14:37:25;;;;;;;6.75;2.05;;;;;;;21.84;100.00;101864.38;6333833;27;20281;-68
2024/04/13 14:40:47;;;;;;;3.10;1.92;;;;;;;21.15;100.00;101862.63;6397155;27;20281;-69
2024/04/13 14:44:07;;;;;;;1.90;1.80;;;;;;;21.91;100.00;101859.84;6364880;27;20298;-69
2024/04/13 14:47:29;;;;;;;2.58;2.38;;;;;;;22.20;100.00;101843.41;6348890;27;20310;-69
2024/04/13 14:50:52;;;;;;;3.08;2.13;;;;;;;21.72;100.00;101840.25;6370319;27;20529;-70
2024/04/13 14:54:18;;;;;;;3.92;2.55;;;;;;;21.31;100.00;101834.25;6366002;27;20313;-70
2024/04/13 14:57:38;;;;;;;3.13;2.20;;;;;;;21.61;100.00;101827.00;6364684;27;20269;-69
2024/04/13 15:01:04;;;;;;;3.00;2.25;;;;;;;21.20;100.00;101823.69;6364026;27;20283;-69
2024/04/13 15:04:24;;;;;;;2.88;2.05;;;;;;;21.31;100.00;101824.16;6366964;27;20264;-69
2024/04/13 15:07:46;;;;;;;3.83;2.53;;;;;;;21.04;100.00;101818.31;6359165;27;20273;-69
2024/04/13 15:11:08;;;;;;;3.53;2.55;;;;;;;21.12;100.00;101802.69;6356386;27;20269;-69
2024/04/13 15:14:31;;;;;;;3.33;2.92;;;;;;;20.81;100.00;101809.19;6357491;27;20273;-69
2024/04/13 15:17:51;;;;;;;2.42;2.20;;;;;;;21.04;100.00;101802.72;6334230;27;20270;-68
2024/04/13 15:21:13;;;;;;;2.92;2.70;;;;;;;21.13;100.00;101792.56;6328624;27;20282;-69
2024/04/13 15:24:36;;;;;;;2.97;2.70;;;;;;;20.85;100.00;101794.06;6329619;27;20629;-69
2024/04/13 15:28:01;;;;;;;3.58;3.03;;;;;;;20.58;100.00;101793.53;6346671;27;20269;-69
2024/04/13 15:31:25;;;;;;;2.97;2.72;;;;;;;20.73;100.00;101786.25;6379270;27;20253;-68